createdAt,value
2018-04-06T00:00:08.614Z,87.96
2018-04-06T00:01:08.623Z,88.62
2018-04-06T00:02:08.627Z,87.87
2018-04-06T00:03:08.634Z,88.06
2018-04-06T00:04:08.655Z,87.87
2018-04-06T00:05:08.649Z,88.43
2018-04-06T00:06:08.655Z,88.34
2018-04-06T00:07:08.661Z,88.06
2018-04-06T00:08:08.676Z,87.30
2018-04-06T00:09:08.679Z,87.39
2018-04-06T00:10:08.682Z,88.06
2018-04-06T00:11:08.694Z,89.29
2018-04-06T00:12:08.700Z,89.76
2018-04-06T00:13:08.706Z,89.95
2018-04-06T00:14:08.719Z,89.34
2018-04-06T00:15:08.717Z,89.34
2018-04-06T00:16:08.725Z,89.91
2018-04-06T00:17:08.734Z,89.62
2018-04-06T00:18:08.738Z,89.81
2018-04-06T00:19:08.747Z,90.00
2018-04-06T00:20:08.758Z,90.10
2018-04-06T00:21:08.764Z,90.00
2018-04-06T00:22:08.768Z,90.00
2018-04-06T00:23:08.773Z,90.10
2018-04-06T00:24:08.783Z,89.72
2018-04-06T00:25:08.787Z,90.00
2018-04-06T00:26:08.801Z,90.19
2018-04-06T00:27:08.803Z,90.29
2018-04-06T00:28:08.818Z,90.19
2018-04-06T00:29:08.819Z,90.10
2018-04-06T00:30:08.822Z,90.19
2018-04-06T00:31:08.827Z,90.10
2018-04-06T00:32:08.840Z,90.48
2018-04-06T00:33:08.843Z,90.57
2018-04-06T00:34:08.861Z,90.38
2018-04-06T00:35:08.859Z,89.53
2018-04-06T00:36:08.862Z,90.19
2018-04-06T00:37:08.874Z,90.19
2018-04-06T00:38:08.880Z,90.29
2018-04-06T00:39:08.884Z,90.48
2018-04-06T00:40:08.890Z,90.67
2018-04-06T00:41:08.897Z,90.57
2018-04-06T00:42:08.902Z,90.29
2018-04-06T00:43:08.907Z,90.48
2018-04-06T00:44:08.924Z,89.91
2018-04-06T00:45:08.927Z,89.43
2018-04-06T00:46:08.933Z,90.10
2018-04-06T00:47:08.939Z,90.10
2018-04-06T00:48:08.944Z,90.48
2018-04-06T00:49:08.950Z,90.57
2018-04-06T00:50:08.959Z,89.25
2018-04-06T00:51:08.962Z,88.82
2018-04-06T00:52:08.971Z,88.87
2018-04-06T00:53:08.978Z,89.06
2018-04-06T00:54:08.986Z,89.86
2018-04-06T00:55:09.015Z,90.86
2018-04-06T00:56:09.003Z,90.91
2018-04-06T00:57:09.005Z,90.48
2018-04-06T00:58:09.008Z,90.34
2018-04-06T00:59:09.018Z,90.19
2018-04-06T01:00:09.021Z,89.96
2018-04-06T01:01:09.027Z,90.34
2018-04-06T01:02:09.040Z,89.96
2018-04-06T01:03:09.041Z,90.05
2018-04-06T01:04:09.048Z,90.05
2018-04-06T01:05:09.053Z,90.15
2018-04-06T01:06:09.060Z,89.77
2018-04-06T01:07:09.070Z,89.67
2018-04-06T01:08:09.073Z,89.20
2018-04-06T01:09:09.083Z,89.67
2018-04-06T01:10:09.091Z,90.15
2018-04-06T01:11:09.101Z,90.53
2018-04-06T01:12:09.101Z,90.24
2018-04-06T01:13:09.106Z,89.86
2018-04-06T01:14:09.116Z,90.15
2018-04-06T01:15:09.122Z,90.24
2018-04-06T01:16:09.124Z,90.91
2018-04-06T01:17:09.135Z,90.15
2018-04-06T01:18:09.146Z,90.62
2018-04-06T01:19:09.151Z,90.15
2018-04-06T01:20:09.160Z,89.29
2018-04-06T01:21:09.165Z,89.39
2018-04-06T01:22:09.169Z,90.72
2018-04-06T01:23:09.171Z,90.72
2018-04-06T01:24:09.177Z,90.05
2018-04-06T01:25:09.186Z,90.53
2018-04-06T01:26:09.189Z,89.77
2018-04-06T01:27:09.203Z,89.96
2018-04-06T01:28:09.201Z,90.43
2018-04-06T01:29:09.208Z,91.19
2018-04-06T01:30:09.221Z,90.91
2018-04-06T01:31:09.223Z,90.15
2018-04-06T01:32:09.228Z,89.96
2018-04-06T01:33:09.243Z,89.96
2018-04-06T01:34:09.241Z,89.86
2018-04-06T01:35:09.247Z,90.05
2018-04-06T01:36:09.254Z,90.05
2018-04-06T01:37:09.270Z,89.86
2018-04-06T01:38:09.267Z,89.11
2018-04-06T01:39:09.277Z,89.01
2018-04-06T01:40:09.278Z,89.11
2018-04-06T01:41:09.286Z,87.97
2018-04-06T01:42:09.295Z,88.11
2018-04-06T01:43:09.296Z,88.30
2018-04-06T01:44:09.300Z,89.06
2018-04-06T01:45:09.320Z,89.72
2018-04-06T01:46:09.315Z,89.72
2018-04-06T01:47:09.327Z,90.39
2018-04-06T01:48:09.328Z,91.24
2018-04-06T01:49:09.336Z,91.14
2018-04-06T01:50:09.337Z,90.77
2018-04-06T01:51:09.346Z,90.95
2018-04-06T01:52:09.370Z,90.58
2018-04-06T01:53:09.362Z,91.14
2018-04-06T01:54:09.365Z,90.48
2018-04-06T01:55:09.371Z,90.01
2018-04-06T01:56:09.380Z,90.10
2018-04-06T01:57:09.395Z,90.01
2018-04-06T01:58:09.404Z,89.91
2018-04-06T01:59:09.446Z,89.91
2018-04-06T02:00:09.399Z,89.91
2018-04-06T02:01:09.407Z,89.82
2018-04-06T02:02:09.413Z,90.10
2018-04-06T02:03:09.418Z,90.67
2018-04-06T02:04:09.434Z,90.20
2018-04-06T02:05:09.439Z,90.10
2018-04-06T02:06:09.436Z,89.63
2018-04-06T02:07:09.443Z,89.91
2018-04-06T02:08:09.510Z,90.86
2018-04-06T02:09:09.453Z,91.62
2018-04-06T02:10:09.479Z,90.77
2018-04-06T02:11:09.468Z,89.91
2018-04-06T02:12:09.479Z,90.58
2018-04-06T02:13:09.502Z,90.10
2018-04-06T02:14:09.486Z,90.01
2018-04-06T02:15:09.493Z,89.72
2018-04-06T02:16:09.507Z,90.20
2018-04-06T02:17:09.506Z,89.72
2018-04-06T02:18:09.510Z,90.01
2018-04-06T02:19:09.516Z,90.58
2018-04-06T02:20:09.520Z,90.48
2018-04-06T02:21:09.530Z,91.05
2018-04-06T02:22:09.540Z,91.24
2018-04-06T02:23:09.551Z,90.67
2018-04-06T02:24:09.543Z,90.86
2018-04-06T02:25:09.551Z,90.95
2018-04-06T02:26:09.557Z,90.01
2018-04-06T02:27:09.561Z,89.91
2018-04-06T02:28:09.574Z,90.01
2018-04-06T02:29:09.574Z,89.72
2018-04-06T02:30:09.582Z,89.82
2018-04-06T02:31:09.590Z,89.25
2018-04-06T02:32:09.598Z,89.63
2018-04-06T02:33:09.598Z,89.82
2018-04-06T02:34:09.624Z,89.63
2018-04-06T02:35:09.614Z,89.06
2018-04-06T02:36:09.620Z,89.53
2018-04-06T02:37:09.626Z,88.87
2018-04-06T02:38:09.634Z,88.78
2018-04-06T02:39:09.633Z,88.59
2018-04-06T02:40:09.648Z,89.44
2018-04-06T02:41:09.654Z,89.15
2018-04-06T02:42:09.654Z,89.44
2018-04-06T02:43:09.660Z,89.91
2018-04-06T02:44:09.664Z,89.25
2018-04-06T02:45:09.679Z,90.10
2018-04-06T02:46:09.682Z,89.91
2018-04-06T02:47:09.684Z,90.10
2018-04-06T02:48:09.690Z,90.20
2018-04-06T02:49:09.697Z,89.63
2018-04-06T02:50:09.702Z,89.53
2018-04-06T02:51:09.716Z,88.87
2018-04-06T02:52:09.723Z,89.06
2018-04-06T02:53:09.717Z,88.87
2018-04-06T02:54:09.722Z,89.06
2018-04-06T02:55:09.729Z,89.44
2018-04-06T02:56:09.733Z,89.44
2018-04-06T02:57:09.741Z,90.20
2018-04-06T02:58:09.755Z,90.01
2018-04-06T02:59:09.754Z,90.01
2018-04-06T03:00:09.759Z,89.91
2018-04-06T03:01:09.765Z,89.49
2018-04-06T03:02:09.768Z,89.44
2018-04-06T03:03:09.814Z,89.82
2018-04-06T03:04:09.777Z,89.20
2018-04-06T03:05:09.792Z,89.11
2018-04-06T03:06:09.790Z,88.64
2018-04-06T03:07:09.798Z,87.88
2018-04-06T03:08:09.803Z,88.64
2018-04-06T03:09:09.808Z,89.15
2018-04-06T03:10:09.818Z,89.25
2018-04-06T03:11:09.829Z,89.20
2018-04-06T03:12:09.826Z,88.64
2018-04-06T03:13:09.835Z,88.54
2018-04-06T03:14:09.838Z,89.20
2018-04-06T03:15:09.842Z,89.87
2018-04-06T03:16:09.858Z,89.96
2018-04-06T03:17:09.859Z,89.68
2018-04-06T03:18:09.859Z,90.44
2018-04-06T03:19:09.868Z,89.96
2018-04-06T03:20:09.871Z,89.39
2018-04-06T03:21:09.880Z,89.58
2018-04-06T03:22:09.883Z,90.25
2018-04-06T03:23:09.896Z,89.49
2018-04-06T03:24:09.898Z,89.30
2018-04-06T03:25:09.899Z,89.49
2018-04-06T03:26:09.905Z,88.73
2018-04-06T03:27:09.913Z,88.64
2018-04-06T03:28:09.919Z,89.20
2018-04-06T03:29:09.934Z,89.20
2018-04-06T03:30:09.928Z,89.49
2018-04-06T03:31:09.938Z,89.58
2018-04-06T03:32:09.939Z,89.49
2018-04-06T03:33:09.945Z,89.39
2018-04-06T03:34:09.950Z,89.77
2018-04-06T03:35:09.964Z,89.77
2018-04-06T03:36:09.963Z,90.15
2018-04-06T03:37:09.967Z,89.77
2018-04-06T03:38:09.975Z,89.58
2018-04-06T03:39:09.979Z,88.64
2018-04-06T03:40:09.988Z,89.30
2018-04-06T03:41:09.992Z,89.77
2018-04-06T03:42:09.993Z,89.87
2018-04-06T03:43:10.001Z,89.68
2018-04-06T03:44:10.008Z,89.30
2018-04-06T03:45:10.013Z,89.77
2018-04-06T03:46:10.020Z,89.96
2018-04-06T03:47:10.032Z,89.68
2018-04-06T03:48:10.028Z,89.87
2018-04-06T03:49:10.039Z,89.49
2018-04-06T03:50:10.042Z,89.49
2018-04-06T03:51:10.046Z,89.20
2018-04-06T03:52:10.049Z,89.01
2018-04-06T03:53:10.088Z,89.58
2018-04-06T03:54:10.062Z,89.77
2018-04-06T03:55:10.066Z,89.58
2018-04-06T03:56:10.080Z,89.39
2018-04-06T03:57:10.078Z,88.64
2018-04-06T03:58:10.084Z,89.20
2018-04-06T03:59:10.092Z,89.20
2018-04-06T04:00:10.098Z,89.49
2018-04-06T04:01:10.103Z,89.30
2018-04-06T04:02:10.113Z,89.20
2018-04-06T04:03:10.110Z,89.30
2018-04-06T04:04:10.117Z,89.77
2018-04-06T04:05:10.134Z,89.96
2018-04-06T04:06:10.138Z,89.96
2018-04-06T04:07:10.134Z,90.53
2018-04-06T04:08:10.139Z,90.15
2018-04-06T04:09:10.144Z,89.58
2018-04-06T04:10:10.148Z,89.39
2018-04-06T04:11:10.159Z,89.58
2018-04-06T04:12:10.165Z,89.20
2018-04-06T04:13:10.167Z,89.30
2018-04-06T04:14:10.170Z,89.11
2018-04-06T04:15:10.177Z,89.39
2018-04-06T04:16:10.183Z,89.58
2018-04-06T04:17:10.197Z,89.30
2018-04-06T04:18:10.194Z,89.30
2018-04-06T04:19:10.202Z,89.49
2018-04-06T04:20:10.206Z,90.15
2018-04-06T04:21:10.211Z,89.96
2018-04-06T04:22:10.222Z,90.15
2018-04-06T04:23:10.228Z,90.06
2018-04-06T04:24:10.230Z,89.87
2018-04-06T04:25:10.233Z,90.34
2018-04-06T04:26:10.235Z,89.58
2018-04-06T04:27:10.245Z,90.15
2018-04-06T04:28:10.260Z,89.68
2018-04-06T04:29:10.265Z,89.49
2018-04-06T04:30:10.261Z,89.68
2018-04-06T04:31:10.263Z,90.63
2018-04-06T04:32:10.269Z,89.77
2018-04-06T04:33:10.276Z,90.34
2018-04-06T04:34:10.281Z,90.25
2018-04-06T04:35:10.295Z,90.44
2018-04-06T04:36:10.296Z,89.68
2018-04-06T04:37:10.295Z,90.06
2018-04-06T04:38:10.300Z,89.96
2018-04-06T04:39:10.305Z,89.87
2018-04-06T04:40:10.311Z,90.06
2018-04-06T04:41:10.323Z,90.15
2018-04-06T04:42:10.324Z,90.34
2018-04-06T04:43:10.329Z,89.63
2018-04-06T04:44:10.334Z,90.11
2018-04-06T04:45:10.341Z,89.82
2018-04-06T04:46:10.366Z,90.34
2018-04-06T04:47:10.353Z,89.87
2018-04-06T04:48:10.355Z,89.77
2018-04-06T04:49:10.360Z,89.87
2018-04-06T04:50:10.363Z,90.06
2018-04-06T04:51:10.369Z,90.44
2018-04-06T04:52:10.375Z,90.81
2018-04-06T04:53:10.398Z,90.67
2018-04-06T04:54:10.387Z,89.77
2018-04-06T04:55:10.391Z,90.44
2018-04-06T04:56:10.395Z,90.81
2018-04-06T04:57:10.404Z,91.00
2018-04-06T04:58:10.406Z,91.38
2018-04-06T04:59:10.422Z,91.29
2018-04-06T05:00:10.417Z,90.15
2018-04-06T05:01:10.425Z,89.77
2018-04-06T05:02:10.429Z,89.58
2018-04-06T05:03:10.431Z,89.77
2018-04-06T05:04:10.449Z,90.72
2018-04-06T05:05:10.449Z,89.77
2018-04-06T05:06:10.461Z,89.87
2018-04-06T05:07:10.453Z,89.58
2018-04-06T05:08:10.458Z,89.87
2018-04-06T05:09:10.464Z,89.96
2018-04-06T05:10:10.469Z,89.77
2018-04-06T05:11:10.481Z,90.01
2018-04-06T05:12:10.482Z,91.43
2018-04-06T05:13:10.490Z,91.81
2018-04-06T05:14:10.491Z,92.29
2018-04-06T05:15:10.498Z,91.53
2018-04-06T05:16:10.505Z,92.19
2018-04-06T05:17:10.521Z,91.62
2018-04-06T05:18:10.512Z,92.10
2018-04-06T05:19:10.520Z,92.19
2018-04-06T05:20:10.522Z,92.66
2018-04-06T05:21:10.530Z,93.32
2018-04-06T05:22:10.535Z,93.13
2018-04-06T05:23:10.544Z,92.90
2018-04-06T05:24:10.546Z,92.76
2018-04-06T05:25:10.549Z,92.43
2018-04-06T05:26:10.554Z,91.76
2018-04-06T05:27:10.559Z,92.14
2018-04-06T05:28:10.569Z,92.24
2018-04-06T05:29:10.570Z,92.33
2018-04-06T05:30:10.585Z,92.43
2018-04-06T05:31:10.584Z,91.57
2018-04-06T05:32:10.591Z,91.86
2018-04-06T05:33:10.596Z,92.24
2018-04-06T05:34:10.597Z,91.57
2018-04-06T05:35:10.604Z,91.67
2018-04-06T05:36:10.618Z,91.95
2018-04-06T05:37:10.613Z,92.43
2018-04-06T05:38:10.619Z,92.33
2018-04-06T05:39:10.623Z,92.14
2018-04-06T05:40:10.629Z,92.05
2018-04-06T05:41:10.635Z,92.05
2018-04-06T05:42:10.639Z,92.52
2018-04-06T05:43:10.658Z,92.80
2018-04-06T05:44:10.658Z,93.08
2018-04-06T05:45:10.657Z,93.08
2018-04-06T05:46:10.666Z,93.13
2018-04-06T05:47:10.669Z,93.27
2018-04-06T05:48:10.674Z,92.99
2018-04-06T05:49:10.693Z,93.37
2018-04-06T05:50:10.687Z,93.32
2018-04-06T05:51:10.694Z,93.89
2018-04-06T05:52:10.699Z,93.32
2018-04-06T05:53:10.722Z,93.32
2018-04-06T05:54:10.711Z,93.23
2018-04-06T05:55:10.733Z,93.70
2018-04-06T05:56:10.717Z,94.18
2018-04-06T05:57:10.724Z,94.18
2018-04-06T05:58:10.730Z,94.08
2018-04-06T05:59:10.738Z,94.84
2018-04-06T06:00:10.753Z,94.93
2018-04-06T06:01:10.758Z,94.56
2018-04-06T06:02:10.750Z,94.84
2018-04-06T06:03:10.757Z,94.84
2018-04-06T06:04:10.764Z,95.12
2018-04-06T06:05:10.769Z,95.22
2018-04-06T06:06:10.778Z,95.22
2018-04-06T06:07:10.781Z,95.41
2018-04-06T06:08:10.805Z,95.60
2018-04-06T06:09:10.794Z,95.69
2018-04-06T06:10:10.800Z,95.98
2018-04-06T06:11:10.802Z,96.07
2018-04-06T06:12:10.811Z,96.73
2018-04-06T06:13:10.817Z,96.92
2018-04-06T06:14:10.829Z,96.92
2018-04-06T06:15:10.826Z,96.92
2018-04-06T06:16:10.835Z,97.68
2018-04-06T06:17:10.841Z,97.49
2018-04-06T06:18:10.843Z,98.25
2018-04-06T06:19:10.868Z,98.06
2018-04-06T06:20:10.904Z,97.68
2018-04-06T06:21:10.868Z,97.49
2018-04-06T06:22:10.872Z,97.68
2018-04-06T06:23:10.920Z,97.49
2018-04-06T06:24:10.883Z,97.07
2018-04-06T06:25:10.894Z,96.97
2018-04-06T06:26:10.890Z,96.69
2018-04-06T06:27:10.895Z,96.03
2018-04-06T06:28:10.909Z,95.93
2018-04-06T06:29:10.934Z,95.93
2018-04-06T06:30:10.914Z,95.84
2018-04-06T06:31:10.920Z,95.26
2018-04-06T06:32:10.929Z,95.45
2018-04-06T06:33:10.972Z,95.45
2018-04-06T06:34:10.950Z,95.65
2018-04-06T06:35:10.945Z,95.55
2018-04-06T06:36:10.955Z,95.84
2018-04-06T06:37:10.957Z,96.12
2018-04-06T06:38:10.965Z,96.31
2018-04-06T06:39:10.969Z,95.84
2018-04-06T06:40:10.982Z,95.93
2018-04-06T06:41:10.981Z,96.22
2018-04-06T06:42:10.998Z,96.22
2018-04-06T06:43:11.006Z,95.84
2018-04-06T06:44:11.007Z,95.93
2018-04-06T06:45:11.008Z,96.69
2018-04-06T06:46:11.013Z,96.78
2018-04-06T06:47:11.027Z,96.69
2018-04-06T06:48:11.061Z,96.97
2018-04-06T06:49:11.035Z,95.26
2018-04-06T06:50:11.039Z,95.93
2018-04-06T06:51:11.043Z,96.03
2018-04-06T06:52:11.052Z,96.59
2018-04-06T06:53:11.062Z,95.88
2018-04-06T06:54:11.062Z,95.88
2018-04-06T06:55:11.069Z,95.60
2018-04-06T06:56:11.076Z,95.69
2018-04-06T06:57:11.083Z,96.08
2018-04-06T06:58:11.089Z,95.31
2018-04-06T06:59:11.102Z,94.65
2018-04-06T07:00:11.106Z,95.60
2018-04-06T07:01:11.111Z,96.08
2018-04-06T07:02:11.113Z,96.64
2018-04-06T07:03:11.122Z,96.92
2018-04-06T07:04:11.132Z,95.98
2018-04-06T07:05:11.140Z,95.98
2018-04-06T07:06:11.141Z,96.17
2018-04-06T07:07:11.874Z,95.60
2018-04-06T07:08:11.158Z,95.98
2018-04-06T07:09:11.169Z,96.03
2018-04-06T07:10:11.170Z,96.08
2018-04-06T07:11:11.175Z,95.93
2018-04-06T07:12:11.179Z,95.55
2018-04-06T07:13:11.186Z,95.65
2018-04-06T07:14:11.191Z,94.60
2018-04-06T07:15:11.202Z,94.98
2018-04-06T07:16:11.208Z,95.74
2018-04-06T07:17:11.246Z,95.17
2018-04-06T07:18:11.222Z,94.79
2018-04-06T07:19:11.226Z,94.42
2018-04-06T07:20:11.238Z,94.89
2018-04-06T07:21:11.240Z,94.51
2018-04-06T07:22:11.249Z,94.03
2018-04-06T07:23:11.260Z,92.99
2018-04-06T07:24:11.263Z,92.61
2018-04-06T07:25:11.272Z,93.27
2018-04-06T07:26:11.318Z,92.99
2018-04-06T07:27:11.283Z,92.66
2018-04-06T07:28:11.295Z,92.14
2018-04-06T07:29:11.294Z,92.66
2018-04-06T07:30:11.310Z,92.85
2018-04-06T07:31:11.308Z,93.41
2018-04-06T07:32:11.317Z,93.13
2018-04-06T07:33:11.332Z,93.41
2018-04-06T07:34:11.330Z,92.85
2018-04-06T07:35:11.344Z,92.75
2018-04-06T07:36:11.351Z,92.66
2018-04-06T07:37:11.360Z,92.75
2018-04-06T07:38:11.356Z,92.47
2018-04-06T07:39:11.366Z,91.52
2018-04-06T07:40:11.376Z,91.33
2018-04-06T07:41:11.383Z,91.75
2018-04-06T07:42:11.399Z,90.38
2018-04-06T07:43:11.392Z,90.33
2018-04-06T07:44:11.403Z,90.61
2018-04-06T07:45:11.411Z,90.23
2018-04-06T07:46:11.423Z,89.09
2018-04-06T07:47:11.419Z,88.62
2018-04-06T07:48:11.431Z,88.62
2018-04-06T07:49:11.444Z,88.15
2018-04-06T07:50:11.453Z,87.86
2018-04-06T07:51:11.449Z,88.81
2018-04-06T07:52:11.458Z,88.71
2018-04-06T07:53:11.498Z,88.71
2018-04-06T07:54:11.475Z,88.05
2018-04-06T07:55:11.487Z,88.05
2018-04-06T07:56:11.502Z,86.34
2018-04-06T07:57:11.498Z,86.34
2018-04-06T07:58:11.504Z,86.72
2018-04-06T07:59:11.508Z,86.34
2018-04-06T08:00:11.518Z,86.43
2018-04-06T08:01:11.534Z,85.96
2018-04-06T08:02:11.531Z,84.91
2018-04-06T08:03:11.562Z,84.91
2018-04-06T08:04:11.547Z,84.63
2018-04-06T08:05:11.558Z,85.77
2018-04-06T08:06:11.560Z,85.58
2018-04-06T08:07:11.570Z,85.68
2018-04-06T08:08:11.579Z,85.43
2018-04-06T08:09:11.592Z,85.43
2018-04-06T08:10:11.591Z,86.15
2018-04-06T08:11:11.598Z,85.81
2018-04-06T08:12:11.624Z,86.24
2018-04-06T08:13:11.621Z,85.58
2018-04-06T08:14:11.630Z,86.10
2018-04-06T08:15:11.632Z,86.29
2018-04-06T08:16:11.637Z,85.05
2018-04-06T08:17:11.652Z,83.82
2018-04-06T08:18:11.651Z,85.05
2018-04-06T08:19:11.659Z,85.15
2018-04-06T08:20:11.668Z,85.72
2018-04-06T08:21:11.684Z,84.95
2018-04-06T08:22:11.688Z,86.00
2018-04-06T08:23:11.702Z,84.95
2018-04-06T08:24:11.700Z,85.81
2018-04-06T08:25:11.704Z,84.39
2018-04-06T08:26:11.734Z,83.44
2018-04-06T08:27:11.725Z,82.96
2018-04-06T08:28:11.729Z,83.91
2018-04-06T08:29:11.737Z,83.62
2018-04-06T08:30:11.747Z,82.81
2018-04-06T08:31:11.749Z,82.68
2018-04-06T08:32:11.759Z,82.81
2018-04-06T08:33:11.765Z,83.39
2018-04-06T08:34:11.774Z,84.52
2018-04-06T08:35:11.785Z,85.57
2018-04-06T08:36:11.788Z,86.24
2018-04-06T08:37:11.797Z,85.76
2018-04-06T08:38:11.813Z,85.76
2018-04-06T08:39:11.821Z,85.38
2018-04-06T08:40:11.820Z,85.95
2018-04-06T08:41:11.838Z,85.10
2018-04-06T08:42:11.843Z,84.72
2018-04-06T08:43:11.840Z,85.10
2018-04-06T08:44:11.862Z,85.28
2018-04-06T08:45:11.865Z,86.24
2018-04-06T08:46:11.884Z,86.94
2018-04-06T08:47:11.881Z,86.66
2018-04-06T08:48:11.886Z,86.09
2018-04-06T08:49:11.893Z,85.61
2018-04-06T08:50:11.895Z,83.52
2018-04-06T08:51:11.904Z,82.95
2018-04-06T08:52:12.685Z,84.38
2018-04-06T08:53:11.921Z,83.04
2018-04-06T08:54:11.935Z,82.28
2018-04-06T08:55:11.936Z,82.86
2018-04-06T08:56:11.946Z,82.48
2018-04-06T08:57:11.954Z,79.33
2018-04-06T08:58:11.960Z,80.29
2018-04-06T08:59:11.971Z,79.72
2018-04-06T09:00:11.983Z,80.29
2018-04-06T09:01:11.987Z,81.14
2018-04-06T09:02:11.993Z,82.28
2018-04-06T09:03:12.003Z,82.19
2018-04-06T09:04:12.012Z,81.05
2018-04-06T09:05:12.023Z,80.76
2018-04-06T09:06:12.036Z,81.52
2018-04-06T09:07:12.057Z,82.70
2018-04-06T09:08:12.040Z,83.09
2018-04-06T09:09:12.085Z,82.61
2018-04-06T09:10:12.058Z,82.51
2018-04-06T09:11:12.066Z,81.52
2018-04-06T09:12:12.089Z,81.56
2018-04-06T09:13:12.084Z,82.80
2018-04-06T09:14:12.092Z,81.85
2018-04-06T09:15:12.129Z,80.52
2018-04-06T09:16:12.111Z,80.80
2018-04-06T09:17:12.116Z,79.75
2018-04-06T09:18:12.135Z,81.18
2018-04-06T09:19:12.138Z,80.42
2018-04-06T09:20:12.143Z,80.33
2018-04-06T09:21:12.205Z,80.18
2018-04-06T09:22:12.159Z,79.03
2018-04-06T09:23:12.207Z,78.46
2018-04-06T09:24:12.181Z,78.46
2018-04-06T09:25:12.181Z,79.32
2018-04-06T09:26:12.192Z,78.46
2018-04-06T09:27:12.197Z,78.85
2018-04-06T09:28:12.209Z,78.75
2018-04-06T09:29:12.217Z,77.89
2018-04-06T09:30:12.222Z,77.89
2018-04-06T09:31:12.239Z,76.18
2018-04-06T09:32:12.265Z,77.13
2018-04-06T09:33:12.253Z,76.18
2018-04-06T09:34:12.262Z,77.32
2018-04-06T09:35:12.277Z,79.03
2018-04-06T09:36:12.274Z,78.17
2018-04-06T09:37:12.291Z,77.51
2018-04-06T09:38:12.291Z,77.03
2018-04-06T09:39:12.302Z,78.17
2018-04-06T09:40:12.308Z,77.64
2018-04-06T09:41:12.318Z,77.17
2018-04-06T09:42:12.328Z,77.26
2018-04-06T09:43:12.335Z,76.21
2018-04-06T09:44:12.351Z,76.69
2018-04-06T09:45:12.354Z,77.55
2018-04-06T09:46:12.365Z,77.74
2018-04-06T09:47:12.376Z,76.12
2018-04-06T09:48:12.383Z,76.16
2018-04-06T09:49:12.403Z,76.06
2018-04-06T09:50:12.399Z,75.68
2018-04-06T09:51:12.412Z,76.54
2018-04-06T09:52:12.413Z,73.87
2018-04-06T09:53:12.464Z,73.77
2018-04-06T09:54:12.435Z,74.44
2018-04-06T09:55:12.439Z,74.63
2018-04-06T09:56:13.142Z,72.92
2018-04-06T09:57:12.458Z,73.49
2018-04-06T09:58:12.679Z,74.44
2018-04-06T09:59:12.486Z,74.44
2018-04-06T10:00:12.486Z,76.44
2018-04-06T10:01:12.494Z,75.49
2018-04-06T10:02:12.504Z,75.01
2018-04-06T10:03:12.519Z,75.68
2018-04-06T10:04:12.526Z,75.49
2018-04-06T10:05:12.531Z,74.54
2018-04-06T10:06:12.540Z,74.06
2018-04-06T10:07:13.142Z,74.73
2018-04-06T10:08:12.561Z,75.20
2018-04-06T10:09:12.568Z,73.68
2018-04-06T10:10:12.582Z,73.11
2018-04-06T10:11:12.604Z,73.68
2018-04-06T10:12:12.602Z,72.53
2018-04-06T10:13:12.605Z,73.39
2018-04-06T10:14:12.614Z,74.73
2018-04-06T10:15:12.624Z,74.54
2018-04-06T10:16:12.633Z,75.59
2018-04-06T10:17:12.642Z,75.01
2018-04-06T10:18:12.650Z,72.82
2018-04-06T10:19:12.664Z,72.57
2018-04-06T10:20:12.682Z,73.05
2018-04-06T10:21:12.678Z,72.57
2018-04-06T10:22:12.689Z,72.76
2018-04-06T10:23:12.697Z,72.76
2018-04-06T10:24:13.650Z,72.48
2018-04-06T10:25:12.716Z,70.67
2018-04-06T10:26:12.735Z,71.81
2018-04-06T10:27:12.738Z,72.89
2018-04-06T10:28:12.745Z,73.08
2018-04-06T10:29:12.754Z,72.23
2018-04-06T10:30:12.776Z,71.84
2018-04-06T10:31:12.777Z,71.27
2018-04-06T10:32:12.785Z,71.27
2018-04-06T10:33:12.850Z,71.56
2018-04-06T10:34:12.806Z,71.08
2018-04-06T10:35:12.835Z,70.61
2018-04-06T10:36:12.818Z,71.31
2018-04-06T10:37:12.845Z,70.36
2018-04-06T10:38:12.841Z,69.11
2018-04-06T10:39:12.848Z,68.35
2018-04-06T10:40:12.859Z,69.40
2018-04-06T10:41:12.868Z,70.64
2018-04-06T10:42:12.879Z,72.55
2018-04-06T10:43:12.896Z,70.07
2018-04-06T10:44:12.901Z,67.30
2018-04-06T10:45:12.905Z,68.63
2018-04-06T10:46:12.914Z,67.97
2018-04-06T10:47:12.930Z,67.68
2018-04-06T10:48:12.941Z,67.58
2018-04-06T10:49:12.945Z,70.54
2018-04-06T10:50:12.964Z,69.11
2018-04-06T10:51:12.967Z,67.81
2018-04-06T10:52:12.981Z,66.95
2018-04-06T10:53:12.985Z,67.27
2018-04-06T10:54:12.993Z,65.77
2018-04-06T10:55:13.028Z,62.71
2018-04-06T10:56:13.015Z,62.30
2018-04-06T10:57:13.036Z,61.85
2018-04-06T10:58:13.036Z,59.39
2018-04-06T10:59:13.047Z,56.93
2018-04-06T11:00:13.060Z,57.12
2018-04-06T11:01:13.070Z,58.30
2018-04-06T11:02:13.084Z,55.33
2018-04-06T11:03:13.102Z,54.17
2018-04-06T11:04:13.112Z,55.71
2018-04-06T11:05:13.125Z,53.85
2018-04-06T11:06:13.147Z,51.47
2018-04-06T11:07:13.161Z,51.02
2018-04-06T11:08:13.170Z,50.08
2018-04-06T11:09:13.194Z,48.16
2018-04-06T11:10:13.235Z,50.18
2018-04-06T11:11:13.222Z,50.10
2018-04-06T11:12:13.238Z,49.96
2018-04-06T11:13:13.254Z,50.92
2018-04-06T11:14:13.272Z,51.43
2018-04-06T11:15:13.294Z,49.60
2018-04-06T11:16:13.311Z,49.43
2018-04-06T11:17:13.332Z,47.99
2018-04-06T11:18:13.347Z,48.13
2018-04-06T11:19:13.368Z,45.83
2018-04-06T11:20:13.383Z,46.59
2018-04-06T11:21:13.411Z,46.19
2018-04-06T11:22:13.424Z,45.90
2018-04-06T11:23:13.467Z,46.31
2018-04-06T11:24:13.463Z,45.65
2018-04-06T11:25:13.494Z,43.65
2018-04-06T11:26:13.503Z,45.27
2018-04-06T11:27:13.529Z,44.52
2018-04-06T11:28:13.551Z,44.32
2018-04-06T11:29:13.564Z,44.42
2018-04-06T11:30:13.585Z,41.75
2018-04-06T11:31:13.605Z,43.46
2018-04-06T11:32:13.631Z,44.71
2018-04-06T11:33:13.649Z,44.71
2018-04-06T11:34:13.681Z,43.75
2018-04-06T11:35:13.706Z,43.48
2018-04-06T11:36:13.711Z,42.71
2018-04-06T11:37:13.737Z,43.46
2018-04-06T11:38:13.767Z,44.40
2018-04-06T11:39:13.777Z,45.05
2018-04-06T11:40:13.800Z,44.67
2018-04-06T11:41:13.825Z,45.70
2018-04-06T11:42:13.848Z,46.19
2018-04-06T11:43:13.869Z,47.05
2018-04-06T11:44:13.930Z,45.61
2018-04-06T11:45:13.911Z,46.57
2018-04-06T11:46:13.939Z,46.78
2018-04-06T11:47:13.965Z,45.44
2018-04-06T11:48:13.981Z,44.40
2018-04-06T11:49:14.004Z,44.62
2018-04-06T11:50:14.026Z,43.71
2018-04-06T11:51:14.055Z,44.69
2018-04-06T11:52:14.086Z,43.55
2018-04-06T11:53:14.096Z,41.09
2018-04-06T11:54:14.144Z,40.97
2018-04-06T11:55:14.141Z,40.12
2018-04-06T11:56:14.162Z,39.26
2018-04-06T11:57:14.191Z,39.39
2018-04-06T11:58:14.212Z,39.86
2018-04-06T11:59:14.230Z,40.45
2018-04-06T12:00:14.254Z,40.24
2018-04-06T12:01:14.276Z,39.78
2018-04-06T12:02:14.307Z,39.74
2018-04-06T12:03:14.326Z,40.12
2018-04-06T12:04:14.372Z,40.61
2018-04-06T12:05:14.369Z,41.13
2018-04-06T12:06:14.757Z,40.03
2018-04-06T12:07:14.417Z,40.15
2018-04-06T12:08:14.442Z,40.12
2018-04-06T12:09:14.464Z,39.86
2018-04-06T12:10:14.488Z,39.69
2018-04-06T12:11:14.522Z,37.27
2018-04-06T12:12:14.538Z,37.06
2018-04-06T12:13:14.560Z,40.42
2018-04-06T12:14:14.588Z,40.32
2018-04-06T12:15:14.613Z,41.19
2018-04-06T12:16:14.633Z,40.63
2018-04-06T12:17:14.665Z,39.87
2018-04-06T12:18:14.682Z,38.64
2018-04-06T12:19:14.710Z,39.28
2018-04-06T12:20:14.733Z,38.71
2018-04-06T12:21:14.757Z,37.87
2018-04-06T12:22:14.780Z,38.43
2018-04-06T12:23:14.812Z,39.43
2018-04-06T12:24:14.834Z,39.49
2018-04-06T12:25:14.855Z,37.96
2018-04-06T12:26:14.895Z,37.98
2018-04-06T12:27:14.903Z,40.97
2018-04-06T12:28:14.928Z,40.51
2018-04-06T12:29:14.955Z,40.05
2018-04-06T12:30:14.978Z,38.04
2018-04-06T12:31:15.002Z,37.13
2018-04-06T12:32:15.032Z,36.18
2018-04-06T12:33:15.055Z,35.04
2018-04-06T12:34:15.080Z,35.89
2018-04-06T12:35:15.109Z,35.80
2018-04-06T12:36:15.133Z,34.20
2018-04-06T12:37:15.151Z,32.15
2018-04-06T12:38:15.178Z,31.59
2018-04-06T12:39:15.202Z,32.65
2018-04-06T12:40:15.227Z,32.65
2018-04-06T12:41:15.265Z,33.25
2018-04-06T12:42:15.278Z,35.45
2018-04-06T12:43:15.302Z,36.47
2018-04-06T12:44:15.331Z,35.21
2018-04-06T12:45:15.358Z,34.81
2018-04-06T12:46:15.380Z,35.83
2018-04-06T12:47:15.509Z,33.23
2018-04-06T12:48:15.431Z,33.87
2018-04-06T12:49:15.459Z,34.62
2018-04-06T12:50:15.486Z,33.92
2018-04-06T12:51:15.509Z,33.59
2018-04-06T12:52:15.541Z,31.97